Time;durP1;ratioP1;P1;durP2;ratioP2;P2;SDS_P1;SDS_P2;PMS_P1;PMS_P2;Temp;Humidity;BMP_temperature;BMP_pressure;BME280_temperature;BME280_humidity;BME280_pressure;Samples;Min_cycle;Max_cycle;Signal;HPM_P1;HPM_P2
2022/09/02 00:02:01;;;;;;;6.45;2.38;;;;;;;19.13;48.62;101342.34;5024245;28;20107;-71
2022/09/02 00:04:27;;;;;;;5.38;2.03;;;;;;;19.11;48.75;101331.56;5027490;28;20052;-72
2022/09/02 00:06:54;;;;;;;8.63;2.17;;;;;;;19.08;48.76;101331.63;5026349;28;20063;-71
2022/09/02 00:09:23;;;;;;;6.32;2.60;;;;;;;19.05;48.74;101338.13;5014409;28;20049;-72
2022/09/02 00:11:52;;;;;;;8.27;2.47;;;;;;;19.02;48.82;101333.38;5024976;28;20076;-71
2022/09/02 00:14:23;;;;;;;5.97;2.22;;;;;;;18.98;48.75;101336.31;5027429;28;20053;-71
2022/09/02 00:16:51;;;;;;;8.27;2.17;;;;;;;18.96;49.33;101333.13;5020445;28;20057;-72
2022/09/02 00:19:23;;;;;;;10.35;2.17;;;;;;;18.89;49.65;101322.09;5019778;28;20156;-71
2022/09/02 00:21:51;;;;;;;9.30;2.67;;;;;;;18.89;49.41;101324.91;5020417;28;20073;-71
2022/09/02 00:24:17;;;;;;;7.75;2.42;;;;;;;18.85;49.49;101318.59;5029159;28;20190;-72
2022/09/02 00:26:45;;;;;;;5.00;2.13;;;;;;;18.86;49.42;101322.22;5026749;28;20045;-72
2022/09/02 00:29:14;;;;;;;8.15;2.58;;;;;;;18.85;49.83;101321.41;5015992;28;20065;-72
2022/09/02 00:31:42;;;;;;;7.50;2.42;;;;;;;18.80;49.42;101316.31;5018427;28;20490;-71
2022/09/02 00:34:09;;;;;;;9.32;2.50;;;;;;;18.77;49.75;101314.41;5021965;28;20061;-72
2022/09/02 00:36:37;;;;;;;10.50;2.50;;;;;;;18.69;49.70;101304.59;5027965;28;20059;-72
2022/09/02 00:39:07;;;;;;;8.02;2.05;;;;;;;18.72;49.82;101308.53;5026015;28;20786;-72
2022/09/02 00:41:36;;;;;;;14.43;3.13;;;;;;;18.68;49.90;101305.03;5024183;28;20053;-72
2022/09/02 00:44:07;;;;;;;9.43;2.67;;;;;;;18.67;50.01;101309.06;5026052;28;20052;-72
2022/09/02 00:46:34;;;;;;;7.88;2.45;;;;;;;18.64;50.50;101319.16;5018137;28;20916;-72
2022/09/02 00:49:09;;;;;;;10.65;2.17;;;;;;;18.61;50.74;101313.59;5017153;28;20045;-72
2022/09/02 00:51:42;;;;;;;10.02;2.30;;;;;;;18.60;50.59;101312.03;5024166;28;20049;-74
2022/09/02 00:54:10;;;;;;;6.80;2.30;;;;;;;18.53;50.22;101301.00;5026723;28;20049;-71
2022/09/02 00:56:39;;;;;;;3.05;1.90;;;;;;;18.49;51.05;101308.72;5025922;28;20726;-72
2022/09/02 00:59:06;;;;;;;13.25;2.75;;;;;;;18.45;51.05;101308.78;5025828;28;20069;-73
2022/09/02 01:01:33;;;;;;;5.05;1.92;;;;;;;18.45;51.10;101314.38;5029191;28;20231;-72
2022/09/02 01:04:00;;;;;;;7.07;2.13;;;;;;;18.40;50.85;101309.31;5026878;28;20599;-72
2022/09/02 01:06:27;;;;;;;8.95;2.10;;;;;;;18.34;51.71;101315.84;5026968;28;20049;-72
2022/09/02 01:09:01;;;;;;;15.13;2.38;;;;;;;18.29;51.87;101294.72;5021276;28;20063;-72
2022/09/02 01:11:36;;;;;;;12.95;2.33;;;;;;;18.27;52.29;101302.78;5020504;28;20159;-72
2022/09/02 01:14:03;;;;;;;10.63;2.10;;;;;;;18.27;52.24;101299.19;5024403;28;20081;-74
2022/09/02 01:16:39;;;;;;;8.05;1.92;;;;;;;18.24;53.22;101300.88;5025223;28;20133;-74
2022/09/02 01:19:16;;;;;;;3.88;2.03;;;;;;;18.15;53.21;101295.06;5026104;28;20057;-73
2022/09/02 01:21:44;;;;;;;;;;;;;;;18.13;53.99;101293.94;5021064;28;20057;-70
2022/09/02 01:24:11;;;;;;;10.38;2.00;;;;;;;18.09;52.64;101287.63;5025178;28;19925;-73
2022/09/02 01:26:38;;;;;;;4.00;1.63;;;;;;;18.09;52.79;101298.81;5028891;28;20049;-73
2022/09/02 01:29:04;;;;;;;6.63;2.03;;;;;;;18.05;54.34;101300.91;5031982;28;20171;-73
2022/09/02 01:31:31;;;;;;;3.42;1.67;;;;;;;18.03;53.30;101302.13;5021505;28;20056;-70
2022/09/02 01:33:58;;;;;;;3.20;1.70;;;;;;;17.97;54.38;101300.28;5022895;28;20091;-72
2022/09/02 01:36:24;;;;;;;7.85;1.98;;;;;;;17.86;54.94;101299.72;5013455;28;20050;-71
2022/09/02 01:38:51;;;;;;;5.22;2.00;;;;;;;17.81;54.67;101298.22;5020115;28;20822;-73
2022/09/02 01:41:17;;;;;;;4.63;2.10;;;;;;;17.80;54.86;101295.84;5025369;28;20540;-71
2022/09/02 01:43:44;;;;;;;5.32;1.75;;;;;;;17.80;54.51;101291.06;5021894;28;20045;-71
2022/09/02 01:46:11;;;;;;;5.97;2.13;;;;;;;17.77;54.34;101286.31;5024184;28;20427;-71
2022/09/02 01:48:37;;;;;;;6.57;1.98;;;;;;;17.77;54.80;101288.31;5035822;28;20049;-71
2022/09/02 01:51:04;;;;;;;4.78;1.70;;;;;;;17.77;54.91;101294.72;5042914;28;20083;-68
2022/09/02 01:53:31;;;;;;;15.15;2.38;;;;;;;17.77;54.55;101285.53;5047428;28;20140;-71
2022/09/02 01:55:58;;;;;;;5.93;1.90;;;;;;;17.76;54.65;101278.34;5032496;28;20073;-74
2022/09/02 01:58:24;;;;;;;5.90;1.60;;;;;;;17.74;54.56;101278.78;5044250;28;20049;-72
2022/09/02 02:00:51;;;;;;;7.57;2.00;;;;;;;17.75;54.58;101285.94;5030353;28;20522;-73
2022/09/02 02:03:19;;;;;;;4.85;1.80;;;;;;;17.71;55.17;101284.44;5043259;28;20059;-71
2022/09/02 02:05:45;;;;;;;3.33;1.75;;;;;;;17.65;55.57;101283.41;5040456;28;20047;-72
2022/09/02 02:08:12;;;;;;;3.78;1.70;;;;;;;17.67;55.31;101286.53;5040918;28;20053;-71
2022/09/02 02:10:41;;;;;;;4.80;1.60;;;;;;;17.68;54.99;101288.09;5036146;28;20045;-70
2022/09/02 02:13:08;;;;;;;9.02;2.05;;;;;;;17.64;55.62;101274.19;5044188;28;20053;-72
2022/09/02 02:15:39;;;;;;;4.43;1.48;;;;;;;17.66;54.95;101285.75;5031308;28;20053;-73
2022/09/02 02:18:06;;;;;;;2.90;1.85;;;;;;;17.65;54.94;101286.97;5040762;28;20076;-73
2022/09/02 02:20:34;;;;;;;5.50;1.60;;;;;;;17.66;55.07;101277.34;5038549;28;20072;-71
2022/09/02 02:23:01;;;;;;;3.22;1.38;;;;;;;17.62;55.48;101279.44;5031856;28;20041;-72
2022/09/02 02:25:27;;;;;;;4.88;1.65;;;;;;;17.61;55.27;101279.84;5043471;28;20044;-71
2022/09/02 02:27:54;;;;;;;3.53;1.60;;;;;;;17.60;55.08;101279.09;5037403;28;20057;-72
2022/09/02 02:30:22;;;;;;;6.13;1.65;;;;;;;17.54;56.39;101275.22;5033196;28;20819;-73
2022/09/02 02:32:49;;;;;;;8.05;2.08;;;;;;;17.45;56.50;101277.78;5045237;28;20048;-72
2022/09/02 02:35:17;;;;;;;10.02;1.92;;;;;;;17.44;56.54;101278.22;5046249;28;20135;-72
2022/09/02 02:37:47;;;;;;;5.75;1.75;;;;;;;17.42;56.06;101284.25;5038651;28;20076;-70
2022/09/02 02:40:19;;;;;;;6.78;1.52;;;;;;;17.44;55.87;101281.00;5041117;28;20526;-74
2022/09/02 02:42:46;;;;;;;4.03;1.42;;;;;;;17.45;56.03;101275.00;5034182;28;20052;-73
2022/09/02 02:45:14;;;;;;;6.88;1.67;;;;;;;17.42;55.85;101270.25;5039167;28;20521;-71
2022/09/02 02:47:44;;;;;;;6.72;2.00;;;;;;;17.43;56.21;101276.66;5032758;28;20414;-72
2022/09/02 02:50:14;;;;;;;7.15;1.85;;;;;;;17.37;56.75;101279.13;5043552;28;20052;-72
2022/09/02 02:52:42;;;;;;;7.55;1.70;;;;;;;17.36;56.44;101280.34;5041448;28;20055;-72
2022/09/02 02:55:10;;;;;;;5.35;1.90;;;;;;;17.36;55.89;101285.94;5040188;28;20454;-71
2022/09/02 02:57:38;;;;;;;4.78;1.42;;;;;;;17.36;56.14;101279.56;5039309;28;20048;-72
2022/09/02 03:00:12;;;;;;;8.85;2.20;;;;;;;17.29;58.28;101274.91;5038793;28;20160;-71
2022/09/02 03:02:39;;;;;;;5.85;1.63;;;;;;;17.26;57.77;101275.75;5046780;28;20095;-67
2022/09/02 03:05:07;;;;;;;7.78;1.98;;;;;;;17.27;56.66;101277.34;5032879;28;20049;-72
2022/09/02 03:07:34;;;;;;;7.28;2.03;;;;;;;17.23;57.93;101273.03;5040015;28;20768;-70
2022/09/02 03:10:07;;;;;;;7.07;1.58;;;;;;;17.25;57.30;101270.59;5037414;28;20155;-72
2022/09/02 03:12:35;;;;;;;4.72;1.70;;;;;;;17.25;56.70;101271.38;5040118;28;20093;-71
2022/09/02 03:15:02;;;;;;;6.90;1.65;;;;;;;17.23;57.54;101282.22;5043124;28;20049;-71
2022/09/02 03:17:29;;;;;;;4.57;1.60;;;;;;;17.18;57.36;101271.50;5040100;28;20042;-72
2022/09/02 03:19:58;;;;;;;6.55;1.50;;;;;;;17.17;56.87;101266.34;5050836;28;20049;-71
2022/09/02 03:22:27;;;;;;;6.45;1.92;;;;;;;17.12;58.14;101270.44;5042789;28;20048;-71
2022/09/02 03:24:54;;;;;;;6.13;1.75;;;;;;;17.07;57.33;101267.34;5036772;28;20060;-69
2022/09/02 03:27:20;;;;;;;8.07;1.63;;;;;;;17.03;57.68;101270.22;5043397;28;20147;-71
2022/09/02 03:29:47;;;;;;;11.98;1.83;;;;;;;16.98;57.87;101269.91;5049690;28;20143;-70
2022/09/02 03:32:13;;;;;;;6.30;1.88;;;;;;;16.94;58.50;101266.41;5048545;28;20052;-71
2022/09/02 03:34:41;;;;;;;6.45;2.03;;;;;;;16.90;58.89;101266.44;5048212;28;20405;-69
2022/09/02 03:37:07;;;;;;;5.95;2.38;;;;;;;16.79;59.62;101265.06;5048105;28;20051;-71
2022/09/02 03:39:36;;;;;;;7.45;1.88;;;;;;;16.80;60.17;101264.63;5037696;28;20045;-71
2022/09/02 03:42:03;;;;;;;6.72;1.60;;;;;;;16.72;60.55;101268.00;5041879;28;20505;-71
2022/09/02 03:44:33;;;;;;;7.07;1.70;;;;;;;16.70;60.55;101264.81;5047870;28;20080;-71
2022/09/02 03:46:59;;;;;;;3.08;1.70;;;;;;;16.68;61.19;101261.69;5041682;28;20051;-68
2022/09/02 03:49:27;;;;;;;5.25;1.52;;;;;;;16.64;60.95;101258.16;5049391;28;20740;-71
2022/09/02 03:51:53;;;;;;;7.40;1.77;;;;;;;16.67;60.70;101257.31;5047394;28;20053;-71
2022/09/02 03:54:20;;;;;;;7.00;1.55;;;;;;;16.67;61.34;101260.09;5048068;28;20132;-71
2022/09/02 03:56:46;;;;;;;7.88;1.70;;;;;;;16.70;60.76;101259.22;5040950;28;20485;-71
2022/09/02 03:59:13;;;;;;;6.15;2.05;;;;;;;16.67;61.43;101258.09;5039429;28;20052;-71
2022/09/02 04:01:40;;;;;;;7.65;1.55;;;;;;;16.67;61.32;101252.50;5046251;28;20083;-71
2022/09/02 04:04:07;;;;;;;6.82;1.80;;;;;;;16.66;60.92;101248.13;5038994;28;20057;-71
2022/09/02 04:06:33;;;;;;;4.97;2.00;;;;;;;16.66;60.40;101248.13;5046379;28;20510;-69
2022/09/02 04:09:00;;;;;;;5.78;1.63;;;;;;;16.67;61.14;101251.72;5045278;28;20527;-72
2022/09/02 04:11:27;;;;;;;3.60;1.60;;;;;;;16.70;59.63;101256.44;5044147;28;20132;-71
2022/09/02 04:13:53;;;;;;;9.77;2.10;;;;;;;16.66;60.40;101248.13;5039013;28;20568;-70
2022/09/02 04:23:07;;;;;;;6.00;2.20;;;;;;;16.70;61.04;101254.44;5047297;28;20049;-70
2022/09/02 04:25:39;;;;;;;11.50;4.53;;;;;;;16.69;61.01;101235.31;5047192;28;20053;-72
2022/09/02 04:28:06;;;;;;;6.75;1.88;;;;;;;16.72;60.48;101245.63;5036613;28;20059;-72
2022/09/02 04:30:32;;;;;;;2.67;1.45;;;;;;;16.75;59.98;101242.78;5039412;28;20243;-72
2022/09/02 04:32:59;;;;;;;5.03;1.60;;;;;;;16.74;60.11;101243.97;5042494;28;20135;-73
2022/09/02 04:35:25;;;;;;;6.50;1.65;;;;;;;16.75;60.78;101244.78;5047344;28;20395;-70
2022/09/02 04:37:52;;;;;;;7.38;1.90;;;;;;;16.79;60.61;101245.50;5048449;28;20055;-72
2022/09/02 04:40:18;;;;;;;5.82;1.80;;;;;;;16.77;59.99;101240.34;5042544;28;20216;-72
2022/09/02 04:42:45;;;;;;;8.27;1.88;;;;;;;16.76;60.17;101232.38;5032212;28;20121;-72
2022/09/02 04:45:12;;;;;;;10.05;2.25;;;;;;;16.80;60.57;101242.28;5039736;28;20049;-72
2022/09/02 04:47:38;;;;;;;8.90;1.70;;;;;;;16.82;60.22;101239.88;5043925;28;20045;-72
2022/09/02 04:50:06;;;;;;;5.45;1.83;;;;;;;16.83;59.86;101240.63;5047315;28;20076;-74
2022/09/02 04:52:33;;;;;;;5.50;1.73;;;;;;;16.83;60.38;101246.22;5036857;28;20128;-72
2022/09/02 04:54:59;;;;;;;7.43;1.80;;;;;;;16.85;59.65;101243.81;5049066;28;20059;-71
2022/09/02 04:57:25;;;;;;;6.78;2.00;;;;;;;16.83;59.67;101243.44;5038818;28;20153;-72
2022/09/02 04:59:52;;;;;;;6.35;1.83;;;;;;;16.82;59.92;101244.66;5042856;28;20044;-73
2022/09/02 05:02:19;;;;;;;2.38;1.40;;;;;;;16.83;59.89;101251.81;5039011;28;20053;-70
2022/09/02 05:04:46;;;;;;;5.13;1.60;;;;;;;16.83;59.59;101240.63;5042879;28;20395;-73
2022/09/02 05:07:12;;;;;;;4.85;2.15;;;;;;;16.89;59.87;101247.31;5037994;28;20433;-70
2022/09/02 05:09:39;;;;;;;7.18;2.03;;;;;;;16.92;59.52;101240.88;5036624;28;20059;-71
2022/09/02 05:12:06;;;;;;;5.25;1.92;;;;;;;16.97;59.81;101248.75;5036444;28;20077;-72
2022/09/02 05:14:32;;;;;;;9.45;1.63;;;;;;;16.99;59.74;101249.13;5043887;28;20049;-71
2022/09/02 05:17:00;;;;;;;5.40;2.00;;;;;;;17.00;59.35;101251.50;5040244;28;20132;-71
2022/09/02 05:19:33;;;;;;;6.03;1.63;;;;;;;16.99;59.06;101246.34;5037443;28;20049;-71
2022/09/02 05:22:00;;;;;;;8.93;1.90;;;;;;;17.05;59.33;101247.41;5039361;28;20049;-70
2022/09/02 05:24:28;;;;;;;6.07;1.70;;;;;;;17.08;59.33;101247.34;5037307;28;20052;-71
2022/09/02 05:26:54;;;;;;;7.82;1.90;;;;;;;17.12;59.55;101250.88;5046159;28;20056;-69
2022/09/02 05:29:22;;;;;;;5.15;1.75;;;;;;;17.15;58.94;101249.22;5032932;28;20128;-72
2022/09/02 05:31:49;;;;;;;5.65;1.80;;;;;;;17.16;59.07;101253.59;5034851;28;20060;-71
2022/09/02 05:34:16;;;;;;;5.78;1.77;;;;;;;17.16;59.61;101248.78;5039724;28;20053;-70
2022/09/02 05:36:43;;;;;;;8.38;2.30;;;;;;;17.17;59.30;101247.56;5034781;28;20474;-70
2022/09/02 05:39:10;;;;;;;7.05;2.05;;;;;;;17.22;59.03;101251.88;5035824;28;20044;-72
2022/09/02 05:41:36;;;;;;;4.40;1.98;;;;;;;17.26;59.10;101255.38;5043368;28;20525;-72
2022/09/02 05:44:04;;;;;;;11.75;2.22;;;;;;;17.26;59.26;101255.38;5043210;28;20506;-71
2022/09/02 05:46:31;;;;;;;7.82;1.88;;;;;;;17.29;59.39;101251.72;5046281;28;20076;-70
2022/09/02 05:49:16;;;;;;;5.63;1.67;;;;;;;17.34;58.96;101254.00;5049495;28;20139;-71
2022/09/02 05:51:44;;;;;;;6.77;1.90;;;;;;;17.36;59.03;101255.19;5037748;28;20052;-73
2022/09/02 05:54:18;;;;;;;4.78;2.10;;;;;;;17.41;58.70;101253.88;5035094;28;20045;-69
2022/09/02 05:56:50;;;;;;;10.10;1.92;;;;;;;17.45;59.05;101244.22;5042848;28;20045;-71
2022/09/02 05:59:18;;;;;;;6.53;2.08;;;;;;;17.53;58.65;101244.88;5035027;28;20052;-70
2022/09/02 06:01:45;;;;;;;8.48;2.92;;;;;;;17.56;58.47;101239.19;5041899;28;20041;-71
2022/09/02 06:04:12;;;;;;;6.95;2.05;;;;;;;17.63;58.27;101239.06;5039375;28;20140;-72
2022/09/02 06:06:39;;;;;;;8.98;2.08;;;;;;;17.64;58.54;101243.41;5036682;28;20053;-71
2022/09/02 06:09:08;;;;;;;9.50;1.80;;;;;;;17.67;58.41;101238.97;5032861;28;20056;-70
2022/09/02 06:11:38;;;;;;;6.22;2.10;;;;;;;17.71;58.50;101239.66;5037047;28;20045;-71
2022/09/02 06:14:06;;;;;;;9.45;2.05;;;;;;;17.75;57.83;101240.38;5038897;28;20079;-72
2022/09/02 06:16:34;;;;;;;7.88;2.08;;;;;;;17.82;58.12;101245.84;5044394;28;20053;-71
2022/09/02 06:19:02;;;;;;;10.35;2.30;;;;;;;17.85;57.89;101237.34;5032873;28;20053;-70
2022/09/02 06:21:30;;;;;;;3.83;1.77;;;;;;;17.89;57.75;101240.09;5044236;28;20135;-67
2022/09/02 06:23:57;;;;;;;5.50;2.13;;;;;;;17.92;57.89;101239.97;5039253;28;20049;-72
2022/09/02 06:26:24;;;;;;;7.63;2.00;;;;;;;17.99;57.66;101236.25;5045435;28;20140;-71
2022/09/02 06:28:51;;;;;;;11.30;2.28;;;;;;;18.07;57.84;101239.66;5041551;28;20056;-71
2022/09/02 06:31:20;;;;;;;4.95;1.70;;;;;;;18.13;57.73;101249.91;5036629;28;20061;-71
2022/09/02 06:33:51;;;;;;;8.88;2.38;;;;;;;18.18;57.12;101248.56;5041426;28;20115;-73
2022/09/02 06:36:19;;;;;;;8.23;2.50;;;;;;;18.22;57.43;101254.91;5044162;28;20063;-70
2022/09/02 06:38:47;;;;;;;8.82;2.35;;;;;;;18.28;57.10;101244.75;5036784;28;20045;-71
2022/09/02 06:41:18;;;;;;;9.65;2.92;;;;;;;18.30;57.16;101242.28;5033777;28;20163;-70
2022/09/02 06:43:44;;;;;;;5.82;1.83;;;;;;;18.37;56.94;101245.75;5046416;28;20493;-68
2022/09/02 06:46:18;;;;;;;12.48;2.92;;;;;;;18.37;56.97;101248.56;5038468;28;20045;-71
2022/09/02 06:48:45;;;;;;;12.20;2.05;;;;;;;18.43;56.91;101246.81;5032216;28;20080;-70
2022/09/02 06:51:20;;;;;;;6.68;1.88;;;;;;;18.46;57.02;101247.94;5044101;28;20049;-70
2022/09/02 06:53:47;;;;;;;;;;;;;;;18.49;57.43;101244.28;5040768;28;20086;-68
2022/09/02 06:56:13;;;;;;;10.48;2.65;;;;;;;18.49;56.88;101245.03;5040314;28;19924;-71
2022/09/02 06:58:40;;;;;;;8.60;2.28;;;;;;;18.56;57.22;101246.88;5036984;28;20471;-72
2022/09/02 07:01:15;;;;;;;7.30;2.10;;;;;;;18.56;57.15;101247.66;5041172;28;20057;-71
2022/09/02 07:06:27;;;;;;;10.70;2.40;;;;;;;18.66;57.58;101243.03;5038132;28;20081;-70
2022/09/02 07:08:54;;;;;;;7.22;2.22;;;;;;;18.68;57.32;101235.75;5031462;28;20336;-71
2022/09/02 07:11:22;;;;;;;6.15;2.13;;;;;;;18.71;57.09;101240.47;5034019;28;20053;-71
2022/09/02 07:13:49;;;;;;;14.68;2.20;;;;;;;18.72;57.13;101244.84;5031938;28;20148;-71
2022/09/02 07:16:16;;;;;;;8.50;2.17;;;;;;;18.78;57.18;101248.69;5040872;28;20050;-70
2022/09/02 07:18:52;;;;;;;10.18;1.90;;;;;;;18.86;56.96;101243.69;5041205;28;20049;-69
2022/09/02 07:21:19;;;;;;;9.15;2.50;;;;;;;18.93;57.38;101241.47;5043030;28;20053;-70
2022/09/02 07:23:45;;;;;;;18.25;2.72;;;;;;;18.99;56.82;101233.31;5038957;28;20481;-74
2022/09/02 07:26:14;;;;;;;9.40;2.53;;;;;;;19.04;56.78;101239.16;5036455;28;20049;-73
2022/09/02 07:28:42;;;;;;;6.60;2.05;;;;;;;19.09;56.85;101235.81;5038448;28;20457;-73
2022/09/02 07:31:14;;;;;;;7.75;2.50;;;;;;;19.21;56.58;101237.91;5038271;28;20082;-70
2022/09/02 07:33:43;;;;;;;10.02;2.42;;;;;;;19.25;56.26;101233.00;5040925;28;20060;-70
2022/09/02 07:36:15;;;;;;;11.25;2.13;;;;;;;19.35;56.05;101245.94;5038944;28;20136;-69
2022/09/02 07:38:42;;;;;;;9.63;2.83;;;;;;;19.41;55.84;101232.91;5040012;28;20055;-70
2022/09/02 07:41:09;;;;;;;12.20;2.55;;;;;;;19.50;55.81;101235.88;5037237;28;20465;-70
2022/09/02 07:43:36;;;;;;;7.80;2.45;;;;;;;19.62;55.36;101246.34;5039609;28;20528;-70
2022/09/02 07:46:04;;;;;;;7.07;2.55;;;;;;;19.74;55.00;101227.91;5040866;28;20059;-69
2022/09/02 07:48:32;;;;;;;9.85;2.63;;;;;;;19.82;54.98;101238.53;5038332;28;20100;-70
2022/09/02 07:50:59;;;;;;;11.18;2.50;;;;;;;19.89;54.54;101232.69;5036210;28;20051;-69
2022/09/02 07:53:27;;;;;;;10.27;2.72;;;;;;;20.00;54.46;101229.53;5043870;28;20494;-70
2022/09/02 07:55:53;;;;;;;10.23;2.90;;;;;;;20.11;53.91;101230.78;5030437;28;20054;-69
2022/09/02 07:58:21;;;;;;;8.50;2.55;;;;;;;20.24;53.79;101225.94;5041433;28;20048;-70
2022/09/02 08:00:49;;;;;;;9.07;2.60;;;;;;;20.43;53.58;101219.28;5042020;28;20053;-71
2022/09/02 08:03:16;;;;;;;14.63;2.97;;;;;;;20.67;53.01;101221.69;5032912;28;20064;-68
2022/09/02 08:05:45;;;;;;;8.18;2.78;;;;;;;20.90;52.43;101212.84;5038782;28;20421;-72
2022/09/02 08:08:14;;;;;;;7.65;2.70;;;;;;;21.11;51.42;101210.09;5040725;28;20053;-71
2022/09/02 08:10:42;;;;;;;9.10;2.65;;;;;;;21.40;51.05;101209.81;5053066;28;20540;-71
2022/09/02 08:13:09;;;;;;;9.40;2.90;;;;;;;21.63;50.29;101212.16;5048713;28;20520;-72
2022/09/02 08:15:37;;;;;;;8.90;2.13;;;;;;;21.78;49.80;101213.19;5032128;28;20049;-70
2022/09/02 08:18:05;;;;;;;7.25;2.25;;;;;;;21.90;48.76;101207.47;5034928;28;20049;-71
2022/09/02 08:20:32;;;;;;;11.25;2.60;;;;;;;21.95;48.79;101218.13;5040983;28;20513;-71
2022/09/02 08:22:59;;;;;;;13.07;3.28;;;;;;;21.91;48.55;101214.66;5040462;28;20052;-70
2022/09/02 08:25:37;;;;;;;14.85;3.17;;;;;;;21.88;48.80;101217.63;5043418;28;20056;-71
2022/09/02 08:28:04;;;;;;;10.82;2.40;;;;;;;21.87;49.10;101214.00;5032905;28;20167;-72
2022/09/02 08:30:30;;;;;;;5.60;2.53;;;;;;;21.87;49.04;101216.84;5038735;28;20136;-68
2022/09/02 08:32:57;;;;;;;8.50;2.45;;;;;;;21.90;49.22;101212.31;5038388;28;20045;-70
2022/09/02 08:35:23;;;;;;;12.45;3.05;;;;;;;21.99;49.21;101215.16;5048214;28;20131;-71
2022/09/02 08:37:50;;;;;;;13.60;3.70;;;;;;;22.03;48.77;101210.97;5041501;28;20057;-71
2022/09/02 08:40:23;;;;;;;6.85;2.30;;;;;;;22.15;48.49;101217.72;5039030;28;20487;-71
2022/09/02 08:42:55;;;;;;;18.65;3.35;;;;;;;22.25;48.18;101214.50;5043025;28;20045;-70
2022/09/02 08:45:24;;;;;;;10.63;2.72;;;;;;;22.34;48.22;101211.69;5062556;28;20178;-71
2022/09/02 08:48:23;;;;;;;11.80;3.05;;;;;;;22.47;47.68;101217.19;5042301;28;20054;-71
2022/09/02 08:50:57;;;;;;;8.80;2.63;;;;;;;22.60;47.48;101218.66;5033191;28;20053;-70
2022/09/02 08:53:33;;;;;;;7.00;2.67;;;;;;;22.70;47.06;101213.81;5032744;28;20041;-71
2022/09/02 08:56:03;;;;;;;8.65;2.47;;;;;;;22.79;46.60;101213.81;5040725;28;20147;-71
2022/09/02 08:58:40;;;;;;;6.28;2.28;;;;;;;22.91;46.71;101217.75;5033495;28;20086;-71
2022/09/02 09:01:32;;;;;;;8.93;2.38;;;;;;;23.05;46.61;101215.06;5035707;28;20167;-71
2022/09/02 09:04:17;;;;;;;10.13;2.08;;;;;;;23.32;45.69;101209.44;5038417;28;20089;-70
2022/09/02 09:06:43;;;;;;;6.72;2.15;;;;;;;23.47;45.47;101210.34;5035170;28;20107;-72
2022/09/02 09:09:19;;;;;;;6.22;2.00;;;;;;;23.46;45.15;101203.16;5040207;28;20603;-70
2022/09/02 09:12:15;;;;;;;12.70;2.38;;;;;;;23.50;45.06;101206.59;5005968;28;20053;-68
2022/09/02 09:15:07;;;;;;;6.93;2.30;;;;;;;23.64;45.24;101199.47;5001372;28;20671;-71
2022/09/02 09:18:01;;;;;;;11.20;1.98;;;;;;;23.77;44.82;101195.22;5014817;28;20088;-71
2022/09/02 09:20:36;;;;;;;6.68;2.08;;;;;;;23.93;44.72;101196.88;5012562;28;20087;-70
2022/09/02 09:23:29;;;;;;;6.28;2.20;;;;;;;24.02;44.37;101182.72;5014268;28;20053;-74
2022/09/02 09:26:10;;;;;;;5.95;2.13;;;;;;;24.16;44.36;101179.97;5010218;28;20057;-75
2022/09/02 09:28:42;;;;;;;7.38;2.20;;;;;;;24.26;43.97;101184.31;5016093;28;20049;-69
2022/09/02 09:31:13;;;;;;;10.70;3.00;;;;;;;24.26;43.82;101181.47;5020891;28;20052;-70
2022/09/02 09:33:54;;;;;;;9.93;2.45;;;;;;;24.32;44.29;101179.56;5022414;28;20060;-74
2022/09/02 09:36:41;;;;;;;5.70;2.13;;;;;;;24.47;43.94;101180.41;5014220;28;20082;-73
2022/09/02 09:39:31;;;;;;;12.40;2.60;;;;;;;24.59;43.53;101179.38;5012987;28;20057;-72
2022/09/02 09:42:02;;;;;;;8.63;2.72;;;;;;;24.71;43.18;101164.22;5010879;28;20091;-70
2022/09/02 09:44:45;;;;;;;8.40;2.10;;;;;;;24.78;43.32;101163.84;5012242;28;20073;-74
2022/09/02 09:47:18;;;;;;;3.92;1.48;;;;;;;24.91;43.32;101158.69;5013743;28;20145;-74
2022/09/02 09:49:50;;;;;;;8.55;2.33;;;;;;;24.92;42.49;101153.81;5010722;28;20053;-74
2022/09/02 09:52:28;;;;;;;6.43;2.05;;;;;;;25.00;42.30;101161.47;5025302;28;20146;-71
2022/09/02 09:55:06;;;;;;;7.57;1.95;;;;;;;25.11;42.24;101158.06;5026954;28;20057;-70
2022/09/02 09:57:33;;;;;;;6.07;2.20;;;;;;;25.29;42.30;101157.88;5024560;28;20053;-69
2022/09/02 10:00:12;;;;;;;4.78;1.98;;;;;;;25.57;41.22;101155.53;5017739;28;20902;-71
2022/09/02 10:02:47;;;;;;;6.40;2.03;;;;;;;25.68;40.79;101153.66;5003191;28;20053;-74
2022/09/02 10:05:16;;;;;;;7.07;2.10;;;;;;;25.73;40.58;101143.69;5004879;28;20061;-73
2022/09/02 10:07:53;;;;;;;8.52;2.40;;;;;;;25.81;40.59;101145.63;5014381;28;20053;-71
2022/09/02 10:10:22;;;;;;;10.07;2.80;;;;;;;25.84;40.30;101155.97;5014311;28;20378;-74
2022/09/02 10:12:53;;;;;;;9.90;2.47;;;;;;;25.87;40.09;101157.03;5017715;28;20060;-74
2022/09/02 10:15:39;;;;;;;8.02;1.90;;;;;;;25.95;39.60;101150.47;5016797;28;20096;-74
2022/09/02 10:18:12;;;;;;;4.80;2.20;;;;;;;26.03;39.83;101157.34;5014073;28;20062;-75
2022/09/02 10:21:01;;;;;;;13.15;2.47;;;;;;;26.10;39.11;101147.63;5014235;28;20070;-73
2022/09/02 10:23:47;;;;;;;7.57;2.00;;;;;;;26.22;39.25;101146.53;5012067;28;20081;-69
2022/09/02 10:26:36;;;;;;;5.05;1.73;;;;;;;26.38;38.85;101149.56;5012032;28;20053;-69
2022/09/02 10:29:41;;;;;;;9.77;2.00;;;;;;;26.51;38.56;101138.66;5012728;28;20053;-70
2022/09/02 10:32:11;;;;;;;9.13;1.90;;;;;;;26.59;37.93;101136.94;5011810;28;20053;-71
2022/09/02 10:34:46;;;;;;;9.73;2.70;;;;;;;26.70;38.13;101136.34;5014517;28;20048;-73
2022/09/02 10:37:22;;;;;;;7.72;1.90;;;;;;;26.91;37.65;101127.28;5016130;28;20052;-74
2022/09/02 10:40:07;;;;;;;7.25;2.10;;;;;;;27.17;37.29;101130.88;5010690;28;20049;-76
2022/09/02 10:43:05;;;;;;;8.68;2.10;;;;;;;27.44;36.91;101127.53;5013395;28;21525;-72
2022/09/02 10:45:51;;;;;;;3.90;1.83;;;;;;;27.56;36.37;101119.91;5012324;28;20055;-72
2022/09/02 10:48:24;;;;;;;9.85;2.58;;;;;;;27.67;36.33;101116.38;5009599;28;20057;-73
2022/09/02 10:51:03;;;;;;;7.47;2.13;;;;;;;27.84;35.85;101114.41;5017259;28;20049;-73
2022/09/02 10:53:35;;;;;;;5.47;1.95;;;;;;;27.97;35.51;101107.03;5013089;28;20053;-73
2022/09/02 10:56:30;;;;;;;5.10;1.88;;;;;;;28.24;35.36;101102.78;5016435;28;20052;-73
2022/09/02 10:59:16;;;;;;;4.68;1.95;;;;;;;28.43;35.24;101103.88;5016644;28;20084;-72
2022/09/02 11:01:53;;;;;;;4.85;1.80;;;;;;;28.74;35.00;101103.75;5009224;28;20190;-73
2022/09/02 11:04:41;;;;;;;12.45;1.95;;;;;;;28.96;35.03;101104.56;5011552;28;20140;-74
2022/09/02 11:07:16;;;;;;;3.33;2.25;;;;;;;28.99;33.58;101108.50;5013832;28;20052;-71
2022/09/02 11:09:47;;;;;;;8.70;2.13;;;;;;;29.16;34.14;101101.53;5012286;28;20078;-73
2022/09/02 11:12:17;;;;;;;8.60;2.38;;;;;;;29.09;34.16;101093.50;5011665;28;20080;-72
2022/09/02 11:14:47;;;;;;;6.65;1.95;;;;;;;28.76;33.54;101092.66;5012991;28;20037;-71
2022/09/02 11:17:26;;;;;;;4.93;2.00;;;;;;;28.53;33.77;101097.50;5015308;28;20048;-73
2022/09/02 11:20:14;;;;;;;6.25;2.00;;;;;;;28.30;34.15;101095.81;5011740;28;20055;-73
2022/09/02 11:23:18;;;;;;;8.90;2.05;;;;;;;28.16;34.33;101099.63;5010161;28;20052;-71
2022/09/02 11:25:56;;;;;;;6.40;2.17;;;;;;;28.17;34.19;101086.97;5015818;28;20053;-70
2022/09/02 11:28:47;;;;;;;9.32;2.38;;;;;;;28.23;34.50;101084.94;5018516;28;20139;-70
2022/09/02 11:31:29;;;;;;;7.82;2.15;;;;;;;28.33;34.18;101083.41;5023016;28;20048;-71
2022/09/02 11:34:23;;;;;;;7.53;2.13;;;;;;;28.42;33.30;101074.66;5030383;28;20038;-70
2022/09/02 11:36:50;;;;;;;7.28;2.08;;;;;;;28.60;33.61;101079.13;5033068;28;20073;-70
2022/09/02 11:39:39;;;;;;;7.13;2.53;;;;;;;28.58;32.67;101062.56;5036735;28;20460;-72
2022/09/02 11:42:50;;;;;;;2.22;1.45;;;;;;;28.92;31.65;101066.28;5035987;28;20049;-70
2022/09/02 11:45:55;;;;;;;11.38;2.40;;;;;;;29.39;30.84;101063.19;5028677;28;20044;-70
2022/09/02 11:48:59;;;;;;;6.45;2.25;;;;;;;29.43;30.19;101060.84;5045142;28;20077;-67
2022/09/02 11:51:51;;;;;;;7.40;2.20;;;;;;;29.41;30.43;101062.69;5030219;28;20051;-69
2022/09/02 11:54:19;;;;;;;6.53;2.17;;;;;;;29.67;30.95;101052.53;5036938;28;20056;-72